createdAt,value
2023-12-08T00:00:25.028Z,22.20
2023-12-08T00:02:58.005Z,23.10
2023-12-08T00:05:32.258Z,23.17
2023-12-08T00:08:07.640Z,21.90
2023-12-08T00:10:40.416Z,23.00
2023-12-08T00:13:13.291Z,21.60
2023-12-08T00:15:48.429Z,22.03
2023-12-08T00:18:22.524Z,20.97
2023-12-08T00:20:57.315Z,21.13
2023-12-08T00:23:30.416Z,20.27
2023-12-08T00:26:03.461Z,22.00
2023-12-08T00:28:37.309Z,21.43
2023-12-08T00:31:10.496Z,21.43
2023-12-08T00:33:44.259Z,21.83
2023-12-08T00:36:18.806Z,21.80
2023-12-08T00:38:52.191Z,23.03
2023-12-08T00:41:26.477Z,21.30
2023-12-08T00:43:59.249Z,21.53
2023-12-08T00:46:32.339Z,21.27
2023-12-08T00:49:07.092Z,20.93
2023-12-08T00:51:41.655Z,21.33
2023-12-08T00:54:15.147Z,22.43
2023-12-08T00:56:48.442Z,21.23
2023-12-08T00:59:21.390Z,21.53
2023-12-08T01:01:54.207Z,20.87
2023-12-08T01:04:27.000Z,20.13
2023-12-08T01:07:01.077Z,20.80
2023-12-08T01:09:33.732Z,21.20
2023-12-08T01:12:07.182Z,22.20
2023-12-08T01:14:40.350Z,21.57
2023-12-08T01:17:13.049Z,20.40
2023-12-08T01:19:45.900Z,20.80
2023-12-08T01:22:22.883Z,20.27
2023-12-08T01:24:55.779Z,20.37
2023-12-08T01:27:28.742Z,22.47
2023-12-08T01:30:01.683Z,20.63
2023-12-08T01:32:34.705Z,21.10
2023-12-08T01:35:07.813Z,21.43
2023-12-08T01:37:42.111Z,21.73
2023-12-08T01:40:15.450Z,21.90
2023-12-08T01:42:49.128Z,21.13
2023-12-08T01:45:22.271Z,20.83
2023-12-08T01:47:55.241Z,19.87
2023-12-08T01:50:28.059Z,20.73
2023-12-08T01:53:02.352Z,21.20
2023-12-08T01:55:37.551Z,20.07
2023-12-08T01:58:10.565Z,21.20
2023-12-08T02:00:44.509Z,19.57
2023-12-08T02:03:18.105Z,21.97
2023-12-08T02:05:51.175Z,20.27
2023-12-08T02:08:34.454Z,20.53
2023-12-08T02:11:07.758Z,21.03
2023-12-08T02:13:43.536Z,19.97
2023-12-08T02:16:19.863Z,18.93
2023-12-08T02:18:53.402Z,21.23
2023-12-08T02:21:26.840Z,21.20
2023-12-08T02:24:01.083Z,22.17
2023-12-08T02:26:37.992Z,21.93
2023-12-08T02:29:12.633Z,21.83
2023-12-08T02:31:47.254Z,21.40
2023-12-08T02:34:22.057Z,21.67
2023-12-08T02:36:56.063Z,20.73
2023-12-08T02:39:30.683Z,19.67
2023-12-08T02:42:03.787Z,21.70
2023-12-08T02:44:36.649Z,20.93
2023-12-08T02:47:09.648Z,20.73
2023-12-08T02:49:42.411Z,21.47
2023-12-08T02:52:17.667Z,21.23
2023-12-08T02:54:52.634Z,20.83
2023-12-08T02:57:25.973Z,22.33
2023-12-08T02:59:58.835Z,21.57
2023-12-08T03:02:31.778Z,20.97
2023-12-08T03:05:05.054Z,20.67
2023-12-08T03:07:37.972Z,23.00
2023-12-08T03:10:14.813Z,21.10
2023-12-08T03:12:47.615Z,21.40
2023-12-08T03:15:20.368Z,21.83
2023-12-08T03:17:53.424Z,21.17
2023-12-08T03:20:26.159Z,20.50
2023-12-08T03:22:58.977Z,20.93
2023-12-08T03:25:33.244Z,21.07
2023-12-08T03:28:06.155Z,21.17
2023-12-08T03:30:38.978Z,21.50
2023-12-08T03:33:11.822Z,20.60
2023-12-08T03:35:44.629Z,20.50
2023-12-08T03:38:17.530Z,21.33
2023-12-08T03:40:51.621Z,21.73
2023-12-08T03:43:26.874Z,22.83
2023-12-08T03:46:00.603Z,21.57
2023-12-08T03:48:33.487Z,21.13
2023-12-08T03:51:06.790Z,21.57
2023-12-08T03:53:39.891Z,21.77
2023-12-08T03:56:14.152Z,22.07
2023-12-08T03:58:47.060Z,23.30
2023-12-08T04:01:19.816Z,21.87
2023-12-08T04:03:52.660Z,22.30
2023-12-08T04:06:25.632Z,22.70
2023-12-08T04:09:00.806Z,21.17
2023-12-08T04:11:35.059Z,23.43
2023-12-08T04:14:08.061Z,21.77
2023-12-08T04:16:42.081Z,22.13
2023-12-08T04:19:15.225Z,23.37
2023-12-08T04:21:48.140Z,23.80
2023-12-08T04:24:22.067Z,21.40
2023-12-08T04:26:56.657Z,22.33
2023-12-08T04:29:29.587Z,21.83
2023-12-08T04:32:02.277Z,22.93
2023-12-08T04:34:35.098Z,21.83
2023-12-08T04:37:07.932Z,23.10
2023-12-08T04:39:43.201Z,22.93
2023-12-08T04:42:18.410Z,22.77
2023-12-08T04:44:51.173Z,22.23
2023-12-08T04:47:24.421Z,23.47
2023-12-08T04:49:57.619Z,22.47
2023-12-08T04:52:30.455Z,22.63
2023-12-08T04:55:05.569Z,23.27
2023-12-08T04:57:40.138Z,22.73
2023-12-08T05:00:14.737Z,22.87
2023-12-08T05:02:49.025Z,23.17
2023-12-08T05:05:21.834Z,23.57
2023-12-08T05:07:54.903Z,21.87
2023-12-08T05:10:27.738Z,23.63
2023-12-08T05:13:02.035Z,21.50
2023-12-08T05:15:34.767Z,23.67
2023-12-08T05:18:07.985Z,22.03
2023-12-08T05:20:41.023Z,22.73
2023-12-08T05:23:13.833Z,22.77
2023-12-08T05:25:46.729Z,22.87
2023-12-08T05:28:22.314Z,23.23
2023-12-08T05:30:55.308Z,21.57
2023-12-08T05:33:28.360Z,22.73
2023-12-08T05:36:02.958Z,22.50
2023-12-08T05:38:37.261Z,22.20
2023-12-08T05:41:10.122Z,23.17
2023-12-08T05:43:44.620Z,23.27
2023-12-08T05:46:17.381Z,21.80
2023-12-08T05:48:50.417Z,22.57
2023-12-08T05:51:26.925Z,20.77
2023-12-08T05:54:00.122Z,21.57
2023-12-08T05:56:33.003Z,21.47
2023-12-08T05:59:07.430Z,22.17
2023-12-08T06:01:40.279Z,21.93
2023-12-08T06:04:13.037Z,21.03
2023-12-08T06:06:45.961Z,20.47
2023-12-08T06:09:19.877Z,22.23
2023-12-08T06:11:56.270Z,20.67
2023-12-08T06:14:30.301Z,21.27
2023-12-08T06:17:03.301Z,20.80
2023-12-08T06:19:39.178Z,20.30
2023-12-08T06:22:11.967Z,20.27
2023-12-08T06:24:44.676Z,20.73
2023-12-08T06:27:17.721Z,20.10
2023-12-08T06:29:52.411Z,20.70
2023-12-08T06:32:26.765Z,21.00
2023-12-08T06:34:59.690Z,20.43
2023-12-08T06:37:32.629Z,20.20
2023-12-08T06:40:06.157Z,19.70
2023-12-08T06:42:42.076Z,20.70
2023-12-08T06:45:16.618Z,19.90
2023-12-08T06:47:49.640Z,19.97
2023-12-08T06:50:22.408Z,20.53
2023-12-08T06:52:55.327Z,21.97
2023-12-08T06:55:31.398Z,22.00
2023-12-08T06:58:04.118Z,21.63
2023-12-08T07:00:41.227Z,20.00
2023-12-08T07:03:14.252Z,20.00
2023-12-08T07:05:49.123Z,19.77
2023-12-08T07:08:22.325Z,19.57
2023-12-08T07:10:55.205Z,21.00
2023-12-08T07:13:28.228Z,22.30
2023-12-08T07:16:04.279Z,20.67
2023-12-08T07:18:37.797Z,20.03
2023-12-08T07:21:13.002Z,21.40
2023-12-08T07:23:46.148Z,19.00
2023-12-08T07:26:22.880Z,20.43
2023-12-08T07:28:55.660Z,20.53
2023-12-08T07:31:29.928Z,22.03
2023-12-08T07:34:03.150Z,20.67
2023-12-08T07:36:36.106Z,20.47
2023-12-08T07:39:10.292Z,21.13
2023-12-08T07:41:44.338Z,19.80
2023-12-08T07:44:23.898Z,21.33
2023-12-08T07:46:58.070Z,21.60
2023-12-08T07:49:30.975Z,20.70
2023-12-08T07:52:03.734Z,21.27
2023-12-08T07:54:36.894Z,20.27
2023-12-08T07:57:10.086Z,19.63
2023-12-08T07:59:43.422Z,21.10
2023-12-08T08:02:24.072Z,22.87
2023-12-08T08:04:57.346Z,21.47
2023-12-08T08:07:34.705Z,20.00
2023-12-08T08:10:09.017Z,20.70
2023-12-08T08:12:44.992Z,22.10
2023-12-08T08:15:18.666Z,20.60
2023-12-08T08:17:53.120Z,20.07
2023-12-08T08:20:27.348Z,19.73
2023-12-08T08:23:00.802Z,19.57
2023-12-08T08:25:33.838Z,19.07
2023-12-08T08:28:06.674Z,19.33
2023-12-08T08:30:40.158Z,19.60
2023-12-08T08:33:14.451Z,19.60
2023-12-08T08:35:47.476Z,18.33
2023-12-08T08:38:22.971Z,20.47
2023-12-08T08:40:56.142Z,19.40
2023-12-08T08:43:29.133Z,19.83
2023-12-08T08:46:02.194Z,19.13
2023-12-08T08:48:36.755Z,18.57
2023-12-08T08:51:10.240Z,19.20
2023-12-08T08:53:44.135Z,18.83
2023-12-08T08:56:17.160Z,19.17
2023-12-08T08:58:54.401Z,20.00
2023-12-08T09:01:27.736Z,17.53
2023-12-08T09:04:05.487Z,19.53
2023-12-08T09:06:41.977Z,18.47
2023-12-08T09:09:18.180Z,18.47
2023-12-08T09:11:51.154Z,18.27
2023-12-08T09:14:23.941Z,17.43
2023-12-08T09:16:56.886Z,17.47
2023-12-08T09:19:31.133Z,16.53
2023-12-08T09:22:04.579Z,18.50
2023-12-08T09:24:40.242Z,16.83
2023-12-08T09:27:13.280Z,17.90
2023-12-08T09:29:46.109Z,17.60
2023-12-08T09:32:21.787Z,17.53
2023-12-08T09:34:56.070Z,22.63
2023-12-08T09:37:36.159Z,18.67
2023-12-08T09:40:11.194Z,19.10
2023-12-08T09:42:45.138Z,19.63
2023-12-08T09:45:18.242Z,18.57
2023-12-08T09:47:55.230Z,17.63
2023-12-08T09:50:29.566Z,16.63
2023-12-08T09:53:02.724Z,15.83
2023-12-08T09:55:35.749Z,18.97
2023-12-08T09:58:08.505Z,20.53
2023-12-08T10:00:41.335Z,18.10
2023-12-08T10:03:14.332Z,16.63
2023-12-08T10:05:48.987Z,18.37
2023-12-08T10:08:25.215Z,17.47
2023-12-08T10:10:58.146Z,16.10
2023-12-08T10:13:31.438Z,17.07
2023-12-08T10:16:04.589Z,16.03
2023-12-08T10:18:38.869Z,17.77
2023-12-08T10:21:16.944Z,20.37
2023-12-08T10:24:00.311Z,18.20
2023-12-08T10:26:33.918Z,16.30
2023-12-08T10:29:09.588Z,15.43
2023-12-08T10:31:43.224Z,16.67
2023-12-08T10:34:16.098Z,16.30
2023-12-08T10:36:50.558Z,16.33
2023-12-08T10:39:24.192Z,17.20
2023-12-08T10:41:57.793Z,17.37
2023-12-08T10:44:30.690Z,15.63
2023-12-08T10:47:03.985Z,17.30
2023-12-08T10:49:38.140Z,15.53
2023-12-08T10:52:13.393Z,17.83
2023-12-08T10:54:46.497Z,16.53
2023-12-08T10:57:19.675Z,16.87
2023-12-08T10:59:54.420Z,15.83
2023-12-08T11:02:31.433Z,16.93
2023-12-08T11:05:07.630Z,15.10
2023-12-08T11:07:44.620Z,16.07
2023-12-08T11:10:17.359Z,13.47
2023-12-08T11:12:55.175Z,15.30
2023-12-08T11:15:29.491Z,15.40
2023-12-08T11:18:06.526Z,16.17
2023-12-08T11:20:39.762Z,14.03
2023-12-08T11:23:14.238Z,14.47
2023-12-08T11:25:57.799Z,14.73
2023-12-08T11:28:34.910Z,15.57
2023-12-08T11:31:11.020Z,15.20
2023-12-08T11:33:46.349Z,14.67
2023-12-08T11:36:20.705Z,14.73
2023-12-08T11:38:55.273Z,14.73
2023-12-08T11:41:28.649Z,15.13
2023-12-08T11:44:04.420Z,15.20
2023-12-08T11:46:39.970Z,14.27
2023-12-08T11:49:13.129Z,13.50
2023-12-08T11:52:06.130Z,14.20
2023-12-08T11:55:06.571Z,14.07
2023-12-08T11:57:44.585Z,15.80
2023-12-08T12:00:19.667Z,16.70
2023-12-08T12:02:53.756Z,15.33
2023-12-08T12:05:27.631Z,15.90
2023-12-08T12:08:02.570Z,14.30
2023-12-08T12:10:35.886Z,14.17
2023-12-08T12:13:13.730Z,13.70
2023-12-08T12:15:47.625Z,14.40
2023-12-08T12:18:20.710Z,13.63
2023-12-08T12:20:53.631Z,15.13
2023-12-08T12:23:26.512Z,16.50
2023-12-08T12:25:59.153Z,17.93
2023-12-08T12:28:34.489Z,13.47
2023-12-08T12:31:08.047Z,14.03
2023-12-08T12:33:41.296Z,14.63
2023-12-08T12:36:16.655Z,14.47
2023-12-08T12:38:49.670Z,14.70
2023-12-08T12:41:23.335Z,13.77
2023-12-08T12:43:58.827Z,15.00
2023-12-08T12:46:32.270Z,13.93
2023-12-08T12:49:06.144Z,14.27
2023-12-08T12:51:40.301Z,13.43
2023-12-08T12:54:13.885Z,15.73
2023-12-08T12:56:50.827Z,15.87
2023-12-08T12:59:25.537Z,13.93
2023-12-08T13:01:58.867Z,14.47
2023-12-08T13:04:32.362Z,15.10
2023-12-08T13:07:14.745Z,15.57
2023-12-08T13:09:47.995Z,14.87
2023-12-08T13:12:24.318Z,15.20
2023-12-08T13:15:04.931Z,14.83
2023-12-08T13:17:38.955Z,15.07
2023-12-08T13:20:14.185Z,15.90
2023-12-08T13:22:47.125Z,14.13
2023-12-08T13:25:20.383Z,15.10
2023-12-08T13:27:53.318Z,15.83
2023-12-08T13:30:27.616Z,16.50
2023-12-08T13:33:03.780Z,15.67
2023-12-08T13:35:38.982Z,15.03
2023-12-08T13:38:12.049Z,17.80
2023-12-08T13:40:45.111Z,16.53
2023-12-08T13:43:17.902Z,14.10
2023-12-08T13:45:52.555Z,14.60
2023-12-08T13:48:25.475Z,15.20
2023-12-08T13:51:06.891Z,15.27
2023-12-08T13:53:54.458Z,15.93
2023-12-08T13:56:27.615Z,14.80
2023-12-08T13:59:00.707Z,15.03
2023-12-08T14:01:35.043Z,15.60
2023-12-08T14:04:08.512Z,14.90
2023-12-08T14:06:42.339Z,16.23
2023-12-08T14:09:15.448Z,16.13
2023-12-08T14:11:48.361Z,16.83
2023-12-08T14:14:22.099Z,16.67
2023-12-08T14:16:56.248Z,18.27
2023-12-08T14:19:29.281Z,16.80
2023-12-08T14:22:02.301Z,15.23
2023-12-08T14:24:38.426Z,14.60
2023-12-08T14:27:11.376Z,15.73
2023-12-08T14:29:44.100Z,15.13
2023-12-08T14:32:19.870Z,14.87
2023-12-08T14:34:52.770Z,20.67
2023-12-08T14:37:26.048Z,14.10
2023-12-08T14:40:01.362Z,14.53
2023-12-08T14:42:35.598Z,15.97
2023-12-08T14:45:10.637Z,15.60
2023-12-08T14:47:46.777Z,15.77
2023-12-08T14:50:20.306Z,15.10
2023-12-08T14:52:53.642Z,15.73
2023-12-08T14:55:28.741Z,16.43
2023-12-08T14:58:01.526Z,16.13
2023-12-08T15:00:35.767Z,15.77
2023-12-08T15:03:10.091Z,15.83
2023-12-08T15:05:43.211Z,15.83
2023-12-08T15:08:16.321Z,15.30
2023-12-08T15:10:49.280Z,18.63
2023-12-08T15:13:22.299Z,16.23
2023-12-08T15:15:55.161Z,15.93
2023-12-08T15:18:30.059Z,15.57
2023-12-08T15:21:03.219Z,15.20
2023-12-08T15:23:38.310Z,15.80
2023-12-08T15:26:11.165Z,15.80
2023-12-08T15:28:44.016Z,15.43
2023-12-08T15:31:16.734Z,15.37
2023-12-08T15:33:51.098Z,14.90
2023-12-08T15:36:24.103Z,17.07
2023-12-08T15:38:56.862Z,16.50
2023-12-08T15:41:29.494Z,15.30
2023-12-08T15:44:02.272Z,16.43
2023-12-08T15:46:39.152Z,16.13
2023-12-08T15:49:13.789Z,15.90
2023-12-08T15:51:47.156Z,14.63
2023-12-08T15:54:20.043Z,16.37
2023-12-08T15:56:53.039Z,15.93
2023-12-08T15:59:25.922Z,15.13
2023-12-08T16:02:01.012Z,15.60
2023-12-08T16:04:35.185Z,15.47
2023-12-08T16:07:07.924Z,16.73
2023-12-08T16:09:43.379Z,16.50
2023-12-08T16:12:16.180Z,17.60
2023-12-08T16:14:49.178Z,15.43
2023-12-08T16:17:22.115Z,15.00
2023-12-08T16:19:56.759Z,15.80
2023-12-08T16:22:29.882Z,16.83
2023-12-08T16:25:03.435Z,16.67
2023-12-08T16:27:36.394Z,16.40
2023-12-08T16:30:10.909Z,17.00
2023-12-08T16:32:44.194Z,16.43
2023-12-08T16:35:18.691Z,18.53
2023-12-08T16:37:51.458Z,15.83
2023-12-08T16:40:24.165Z,17.40
2023-12-08T16:42:56.958Z,17.17
2023-12-08T16:45:29.863Z,16.53
2023-12-08T16:48:02.855Z,15.63
2023-12-08T16:50:37.450Z,15.70
2023-12-08T16:53:10.214Z,15.53
2023-12-08T16:55:43.311Z,17.27
2023-12-08T16:58:16.219Z,17.10
2023-12-08T17:00:49.130Z,16.63
2023-12-08T17:03:22.781Z,16.10
2023-12-08T17:05:57.578Z,16.27
2023-12-08T17:08:30.846Z,16.37
2023-12-08T17:11:05.515Z,15.00
2023-12-08T17:13:38.310Z,16.90
2023-12-08T17:16:11.125Z,15.80
2023-12-08T17:18:43.970Z,17.90
2023-12-08T17:21:18.946Z,22.60
2023-12-08T17:23:52.015Z,18.17
2023-12-08T17:26:33.007Z,16.77
2023-12-08T17:29:12.183Z,17.97
2023-12-08T17:31:45.315Z,16.50
2023-12-08T17:34:22.568Z,17.50
2023-12-08T17:36:58.701Z,18.40
2023-12-08T17:39:31.688Z,18.70
2023-12-08T17:42:05.013Z,18.67
2023-12-08T17:44:37.985Z,18.17
2023-12-08T17:47:12.111Z,16.97
2023-12-08T17:49:45.045Z,17.63
2023-12-08T17:52:25.106Z,17.33
2023-12-08T17:54:58.612Z,16.40
2023-12-08T17:57:31.562Z,15.63
2023-12-08T18:00:06.944Z,17.07
2023-12-08T18:02:40.043Z,17.83
2023-12-08T18:05:14.970Z,16.93
2023-12-08T18:07:49.183Z,17.20
2023-12-08T18:10:22.252Z,16.23
2023-12-08T18:12:55.458Z,17.33
2023-12-08T18:15:28.631Z,18.23
2023-12-08T18:18:03.336Z,17.50
2023-12-08T18:20:37.591Z,16.47
2023-12-08T18:23:15.715Z,16.90
2023-12-08T18:25:54.428Z,17.57
2023-12-08T18:28:58.574Z,17.37
2023-12-08T18:31:23.763Z,18.83
2023-12-08T18:33:57.153Z,17.60
2023-12-08T18:36:35.270Z,17.77
2023-12-08T18:39:09.709Z,18.40
2023-12-08T18:41:45.681Z,18.67
2023-12-08T18:44:18.649Z,18.30
2023-12-08T18:46:51.464Z,26.27
2023-12-08T18:49:24.280Z,23.17
2023-12-08T18:51:57.116Z,19.00
2023-12-08T18:54:31.281Z,17.53
2023-12-08T18:57:04.343Z,17.40
2023-12-08T18:59:39.255Z,18.63
2023-12-08T19:02:13.616Z,17.57
2023-12-08T19:04:46.691Z,19.23
2023-12-08T19:07:19.519Z,18.83
2023-12-08T19:09:56.403Z,19.17
2023-12-08T19:12:32.415Z,17.93
2023-12-08T19:15:06.003Z,17.67
2023-12-08T19:17:41.908Z,18.40
2023-12-08T19:20:14.931Z,18.70
2023-12-08T19:22:47.727Z,18.77
2023-12-08T19:25:22.047Z,17.93
2023-12-08T19:27:57.357Z,18.73
2023-12-08T19:30:33.204Z,19.23
2023-12-08T19:33:06.140Z,18.70
2023-12-08T19:35:39.050Z,21.83
2023-12-08T19:38:12.072Z,18.77
2023-12-08T19:40:47.460Z,22.00
2023-12-08T19:43:22.189Z,19.40
2023-12-08T19:45:54.952Z,19.03
2023-12-08T19:48:30.536Z,18.80
2023-12-08T19:51:08.406Z,19.50
2023-12-08T19:53:41.147Z,18.50
2023-12-08T19:56:18.391Z,20.27
2023-12-08T19:58:51.352Z,18.00
2023-12-08T20:01:24.095Z,19.33
2023-12-08T20:03:58.055Z,18.17
2023-12-08T20:06:32.328Z,18.63
2023-12-08T20:09:05.549Z,18.33
2023-12-08T20:11:40.478Z,18.77
2023-12-08T20:14:13.282Z,21.07
2023-12-08T20:16:51.062Z,20.30
2023-12-08T20:19:26.394Z,20.63
2023-12-08T20:21:59.724Z,20.63
2023-12-08T20:24:35.547Z,20.60
2023-12-08T20:27:09.978Z,20.67
2023-12-08T20:29:42.870Z,19.93
2023-12-08T20:32:15.975Z,20.57
2023-12-08T20:34:49.069Z,20.53
2023-12-08T20:37:21.927Z,19.77
2023-12-08T20:39:54.681Z,20.13
2023-12-08T20:42:29.046Z,21.30
2023-12-08T20:45:01.927Z,21.20
2023-12-08T20:47:35.854Z,20.00
2023-12-08T20:50:08.881Z,21.03
2023-12-08T20:52:41.786Z,22.33
2023-12-08T20:55:14.652Z,21.77
2023-12-08T20:57:48.959Z,21.30
2023-12-08T21:00:22.890Z,24.37
2023-12-08T21:02:56.005Z,25.53
2023-12-08T21:05:29.086Z,23.37
2023-12-08T21:08:02.022Z,24.43
2023-12-08T21:10:34.832Z,22.43
2023-12-08T21:13:09.016Z,21.43
2023-12-08T21:15:42.057Z,21.53
2023-12-08T21:18:15.135Z,21.30
2023-12-08T21:20:50.598Z,20.70
2023-12-08T21:23:23.590Z,20.53
2023-12-08T21:25:56.697Z,19.30
2023-12-08T21:28:31.396Z,21.07
2023-12-08T21:31:07.143Z,21.20
2023-12-08T21:33:39.951Z,20.53
2023-12-08T21:36:12.745Z,21.00
2023-12-08T21:38:45.544Z,22.63
2023-12-08T21:41:18.314Z,22.57
2023-12-08T21:43:52.697Z,20.67
2023-12-08T21:46:25.531Z,22.80
2023-12-08T21:48:59.163Z,22.43
2023-12-08T21:51:34.540Z,26.17
2023-12-08T21:54:07.698Z,26.73
2023-12-08T21:56:40.575Z,28.73
2023-12-08T21:59:15.023Z,27.67
2023-12-08T22:01:48.149Z,24.80
2023-12-08T22:04:23.631Z,22.83
2023-12-08T22:06:56.469Z,21.47
2023-12-08T22:09:29.333Z,22.40
2023-12-08T22:12:03.545Z,21.60
2023-12-08T22:14:37.901Z,20.43
2023-12-08T22:17:10.931Z,21.83
2023-12-08T22:19:43.666Z,23.07
2023-12-08T22:22:17.009Z,23.17
2023-12-08T22:24:52.058Z,23.30
2023-12-08T22:27:25.388Z,22.47
2023-12-08T22:30:00.445Z,22.87
2023-12-08T22:32:36.198Z,23.93
2023-12-08T22:35:09.109Z,22.83
2023-12-08T22:37:41.859Z,23.77
2023-12-08T22:40:16.115Z,24.43
2023-12-08T22:42:49.130Z,23.43
2023-12-08T22:45:23.580Z,24.87
2023-12-08T22:47:56.406Z,24.50
2023-12-08T22:50:39.017Z,24.37
2023-12-08T22:53:19.237Z,22.73
2023-12-08T22:55:54.353Z,23.10
2023-12-08T22:58:27.189Z,23.93
2023-12-08T23:01:01.416Z,23.33
2023-12-08T23:03:34.259Z,22.80
2023-12-08T23:06:07.092Z,23.00
2023-12-08T23:08:40.074Z,22.97
2023-12-08T23:11:13.733Z,23.17
2023-12-08T23:13:46.712Z,22.57
2023-12-08T23:16:20.885Z,23.10
2023-12-08T23:18:53.995Z,22.00
2023-12-08T23:21:27.850Z,23.10
2023-12-08T23:24:03.767Z,23.63
2023-12-08T23:26:37.364Z,24.27
2023-12-08T23:29:10.211Z,21.67
2023-12-08T23:31:44.700Z,24.53
2023-12-08T23:34:17.632Z,25.10
2023-12-08T23:36:50.643Z,24.33
2023-12-08T23:39:23.473Z,23.33
2023-12-08T23:42:00.145Z,24.47
2023-12-08T23:44:33.391Z,23.70
2023-12-08T23:47:08.199Z,24.87
2023-12-08T23:49:42.796Z,22.80
2023-12-08T23:52:16.536Z,23.40
2023-12-08T23:54:50.061Z,24.57
2023-12-08T23:57:23.101Z,23.67
2023-12-08T23:59:56.132Z,25.47
